Time;durP1;ratioP1;P1;durP2;ratioP2;P2;SDS_P1;SDS_P2;PMS_P1;PMS_P2;Temp;Humidity;BMP_temperature;BMP_pressure;BME280_temperature;BME280_humidity;BME280_pressure;Samples;Min_cycle;Max_cycle;Signal;HPM_P1;HPM_P2
2021/03/05 00:02:00;;;;;;;;;;;;;;;29.63;46.46;101193.72;4994958;28;69959;-36
2021/03/05 00:04:29;;;;;;;;;;;;;;;29.69;47.14;101190.19;4996291;28;66372;-36
2021/03/05 00:06:59;;;;;;;;;;;;;;;29.69;48.17;101192.06;4996444;28;69724;-34
2021/03/05 00:09:28;;;;;;;;;;;;;;;29.72;48.57;101197.88;4993051;28;65050;-38
2021/03/05 00:11:57;;;;;;;;;;;;;;;29.60;51.32;101199.50;4989822;28;69822;-37
2021/03/05 00:14:27;;;;;;;;;;;;;;;29.57;52.08;101205.31;4999258;28;65363;-38
2021/03/05 00:16:56;;;;;;;;;;;;;;;29.57;53.01;101199.91;4985789;28;68731;-39
2021/03/05 00:19:26;;;;;;;;;;;;;;;29.59;52.66;101209.47;4995746;28;65776;-37
2021/03/05 00:21:54;;;;;;;;;;;;;;;29.65;52.36;101212.44;4999617;28;67952;-37
2021/03/05 00:24:24;;;;;;;;;;;;;;;29.66;53.57;101209.53;4997307;28;66391;-39
2021/03/05 00:26:53;;;;;;;;;;;;;;;29.58;53.59;101205.09;5029896;28;70479;-38
2021/03/05 00:29:22;;;;;;;;;;;;;;;29.73;52.99;101214.97;4994861;28;66472;-38
2021/03/05 00:31:52;;;;;;;;;;;;;;;29.74;54.11;101220.16;4997030;28;69137;-38
2021/03/05 00:34:21;;;;;;;;;;;;;;;29.67;52.94;101222.03;4996250;28;66348;-38
2021/03/05 00:36:51;;;;;;;;;;;;;;;29.70;53.98;101221.59;5000107;28;70304;-38
2021/03/05 00:39:20;;;;;;;;;;;;;;;29.67;54.16;101230.13;4999542;28;65778;-39
2021/03/05 00:41:49;;;;;;;;;;;;;;;29.76;53.06;101237.00;4998641;28;70077;-38
2021/03/05 00:44:20;;;;;;;;;;;;;;;29.73;53.83;101242.00;4995159;28;65950;-37
2021/03/05 00:46:49;;;;;;;;;;;;;;;29.76;54.10;101241.59;4998898;28;69390;-37
2021/03/05 00:49:19;;;;;;;;;;;;;;;29.73;53.80;101258.22;5000688;28;66086;-37
2021/03/05 00:51:48;;;;;;;;;;;;;;;29.78;53.54;101258.41;5013989;28;69771;-39
2021/03/05 00:54:21;;;;;;;;;;;;;;;29.83;53.62;101259.47;5008194;28;67089;-38
2021/03/05 00:56:52;;;;;;;;;;;;;;;29.89;53.43;101262.41;5013324;28;69940;-39
2021/03/05 00:59:22;;;;;;;;;;;;;;;29.91;53.36;101265.75;5031006;28;65674;-38
2021/03/05 01:01:52;;;;;;;;;;;;;;;29.92;52.97;101267.41;4996826;28;68997;-40
2021/03/05 01:04:22;;;;;;;;;;;;;;;29.89;53.13;101278.63;4997616;28;66967;-38
2021/03/05 01:06:55;;;;;;;;;;;;;;;29.98;52.35;101277.44;5014201;28;69681;-36
2021/03/05 01:09:27;;;;;;;;;;;;;;;30.00;53.17;101280.75;4999262;28;66967;-37
2021/03/05 01:11:56;;;;;;;;;;;;;;;30.00;52.75;101280.75;4996014;28;69285;-38
2021/03/05 01:14:25;;;;;;;;;;;;;;;29.99;52.65;101284.50;4999551;28;65798;-38
2021/03/05 01:16:54;;;;;;;;;;;;;;;30.00;52.26;101288.84;5027348;28;70835;-37
2021/03/05 01:19:25;;;;;;;;;;;;;;;30.05;52.41;101289.91;4998041;28;65170;-38
2021/03/05 01:21:54;;;;;;;;;;;;;;;30.09;52.37;101290.34;4996208;28;71077;-38
2021/03/05 01:24:24;;;;;;;;;;;;;;;30.12;51.81;101291.81;4992847;28;66510;-35
2021/03/05 01:26:54;;;;;;;;;;;;;;;30.15;51.86;101294.94;4996193;28;70496;-36
2021/03/05 01:29:23;;;;;;;;;;;;;;;30.13;51.68;101294.28;4994587;28;66241;-38
2021/03/05 01:31:52;;;;;;;;;;;;;;;30.11;52.03;101292.84;4995429;28;70491;-38
2021/03/05 01:34:22;;;;;;;;;;;;;;;30.15;52.13;101288.69;4996471;28;67011;-38
2021/03/05 01:36:51;;;;;;;;;;;;;;;30.23;51.72;101289.34;4997450;28;69654;-38
2021/03/05 01:39:22;;;;;;;;;;;;;;;30.18;51.65;101283.69;4997519;28;65588;-36
2021/03/05 01:41:52;;;;;;;;;;;;;;;30.18;52.11;101294.53;4990009;28;70243;-37
2021/03/05 01:44:21;;;;;;;;;;;;;;;30.22;51.41;101293.09;4996336;28;66002;-37
2021/03/05 01:46:49;;;;;;;;;;;;;;;30.28;51.19;101291.44;4994853;28;69068;-37
2021/03/05 01:49:19;;;;;;;;;;;;;;;30.32;51.19;101289.16;4996335;28;66285;-39
2021/03/05 01:51:48;;;;;;;;;;;;;;;30.37;51.06;101298.34;4996639;28;69873;-38
2021/03/05 01:54:17;;;;;;;;;;;;;;;30.40;50.95;101294.38;4997342;28;66402;-38
2021/03/05 01:56:48;;;;;;;;;;;;;;;30.36;50.98;101290.41;4996100;28;70097;-37
2021/03/05 01:59:30;;;;;;;;;;;;;;;30.39;50.96;101288.09;4995421;28;66262;-37
2021/03/05 02:02:09;;;;;;;;;;;;;;;30.51;50.18;101293.75;4996525;28;70699;-37
2021/03/05 02:04:39;;;;;;;;;;;;;;;30.48;50.42;101296.88;4995375;28;66053;-36
2021/03/05 02:07:08;;;;;;;;;;;;;;;30.51;50.23;101293.75;4995413;28;69742;-38
2021/03/05 02:09:37;;;;;;;;;;;;;;;30.50;50.83;101302.91;4998460;28;65945;-39
2021/03/05 02:12:07;;;;;;;;;;;;;;;30.51;50.65;101304.59;4994617;28;69971;-37
2021/03/05 02:14:36;;;;;;;;;;;;;;;30.52;50.68;101300.81;4995192;28;65589;-39
2021/03/05 02:17:11;;;;;;;;;;;;;;;30.45;50.33;101308.09;4994290;28;70091;-38
2021/03/05 02:20:01;;;;;;;;;;;;;;;30.53;49.92;101305.19;4990694;28;65629;-37
2021/03/05 02:22:49;;;;;;;;;;;;;;;30.64;49.91;101311.84;4993326;28;69106;-38
2021/03/05 02:25:21;;;;;;;;;;;;;;;30.62;49.98;101306.66;4990662;28;66739;-39
2021/03/05 02:27:53;;;;;;;;;;;;;;;30.53;49.84;101307.06;4994288;28;69694;-37
2021/03/05 02:30:22;;;;;;;;;;;;;;;30.62;49.71;101300.41;4987455;28;66917;-39
2021/03/05 02:32:56;;;;;;;;;;;;;;;30.60;50.10;101302.50;4993162;28;70034;-38
2021/03/05 02:35:26;;;;;;;;;;;;;;;30.69;49.62;101306.66;4990166;28;66316;-38
2021/03/05 02:37:57;;;;;;;;;;;;;;;30.75;49.52;101305.81;4991230;28;69380;-37
2021/03/05 02:40:31;;;;;;;;;;;;;;;30.75;49.77;101310.41;4989833;28;66033;-38
2021/03/05 02:43:03;;;;;;;;;;;;;;;30.68;49.94;101305.00;4994581;28;69293;-39
2021/03/05 02:45:37;;;;;;;;;;;;;;;30.69;50.05;101302.06;4992537;28;66233;-38
2021/03/05 02:48:11;;;;;;;;;;;;;;;30.82;49.12;101305.84;4994823;28;69323;-37
2021/03/05 02:50:42;;;;;;;;;;;;;;;30.80;49.35;101302.53;4996486;28;65088;-41
2021/03/05 02:53:15;;;;;;;;;;;;;;;30.81;49.71;101309.59;4994679;28;69877;-41
2021/03/05 02:55:46;;;;;;;;;;;;;;;30.79;49.33;101303.53;4985336;28;67153;-38
2021/03/05 02:58:17;;;;;;;;;;;;;;;30.87;49.16;101311.44;4992848;28;69377;-39
2021/03/05 03:00:48;;;;;;;;;;;;;;;30.93;48.75;101307.94;4993880;28;66057;-38
2021/03/05 03:03:19;;;;;;;;;;;;;;;30.95;48.65;101294.97;4997071;28;69982;-42
2021/03/05 03:05:50;;;;;;;;;;;;;;;30.89;48.87;101296.66;4993958;28;66776;-38
2021/03/05 03:08:20;;;;;;;;;;;;;;;30.89;49.16;101298.53;4994109;28;69219;-39
2021/03/05 03:10:49;;;;;;;;;;;;;;;30.96;48.41;101298.53;4995273;28;65432;-38
2021/03/05 03:13:18;;;;;;;;;;;;;;;30.97;49.03;101294.78;4993740;28;69628;-38
2021/03/05 03:15:48;;;;;;;;;;;;;;;30.99;48.40;101285.41;4992798;28;66306;-38
2021/03/05 03:18:18;;;;;;;;;;;;;;;30.98;48.77;101288.31;4992503;28;69893;-37
2021/03/05 03:20:48;;;;;;;;;;;;;;;30.99;48.65;101282.69;4991454;28;66122;-37
2021/03/05 03:23:17;;;;;;;;;;;;;;;31.06;48.72;101278.06;5006830;28;69542;-38
2021/03/05 03:25:46;;;;;;;;;;;;;;;31.10;48.51;101275.78;4993041;28;66734;-38
2021/03/05 03:28:16;;;;;;;;;;;;;;;31.13;48.90;101280.78;4997527;28;69587;-44
2021/03/05 03:30:46;;;;;;;;;;;;;;;31.23;48.82;101274.91;4995189;28;65544;-38
2021/03/05 03:33:15;;;;;;;;;;;;;;;31.19;48.45;101270.97;4990599;28;69662;-39
2021/03/05 03:35:44;;;;;;;;;;;;;;;31.22;48.42;101273.25;4993217;28;66209;-38
2021/03/05 03:38:13;;;;;;;;;;;;;;;31.27;48.21;101254.47;4993267;28;70482;-38
2021/03/05 03:40:43;;;;;;;;;;;;;;;31.32;48.68;101257.38;4993210;28;66158;-40
2021/03/05 03:43:12;;;;;;;;;;;;;;;31.28;48.12;101253.41;4990827;28;69824;-40
2021/03/05 03:45:41;;;;;;;;;;;;;;;31.34;48.09;101249.84;4989980;28;66234;-37
2021/03/05 03:48:11;;;;;;;;;;;;;;;31.37;48.30;101250.31;4996164;28;69857;-38
2021/03/05 03:50:43;;;;;;;;;;;;;;;31.45;47.94;101241.06;4996040;28;66252;-39
2021/03/05 03:53:18;;;;;;;;;;;;;;;31.53;47.69;101238.13;4999355;28;70074;-38
2021/03/05 03:55:51;;;;;;;;;;;;;;;31.54;48.03;101228.94;5000279;28;65737;-39
2021/03/05 03:58:21;;;;;;;;;;;;;;;31.60;47.44;101214.50;4997062;28;69841;-39
2021/03/05 04:00:53;;;;;;;;;;;;;;;31.59;48.04;101209.28;4988491;28;68801;-38
2021/03/05 04:03:27;;;;;;;;;;;;;;;31.69;47.84;101215.09;4997003;28;70003;-39
2021/03/05 04:05:57;;;;;;;;;;;;;;;31.68;47.43;101205.31;4986905;28;66712;-37
2021/03/05 04:08:35;;;;;;;;;;;;;;;31.77;47.76;101198.56;4995653;28;69111;-38
2021/03/05 04:11:06;;;;;;;;;;;;;;;31.74;47.77;101196.28;4991381;28;65540;-39
2021/03/05 04:13:40;;;;;;;;;;;;;;;31.80;47.61;101189.97;4987283;28;70762;-39
2021/03/05 04:16:09;;;;;;;;;;;;;;;31.86;47.24;101180.13;4987178;28;66955;-39
2021/03/05 04:18:39;;;;;;;;;;;;;;;31.85;47.30;101178.47;4987687;28;69954;-39
2021/03/05 04:21:22;;;;;;;;;;;;;;;31.88;46.91;101169.91;4989994;28;66147;-38
2021/03/05 04:23:52;;;;;;;;;;;;;;;31.86;46.12;101172.00;4994308;28;69755;-39
2021/03/05 04:26:21;;;;;;;;;;;;;;;31.89;46.45;101165.28;4986469;28;65588;-40
2021/03/05 04:28:50;;;;;;;;;;;;;;;31.93;45.88;101156.53;4993897;28;69747;-37
2021/03/05 04:31:19;;;;;;;;;;;;;;;32.02;45.62;101159.81;4992147;28;66597;-39
2021/03/05 04:33:53;;;;;;;;;;;;;;;32.07;45.13;101156.41;4990857;28;70220;-39
2021/03/05 04:36:22;;;;;;;;;;;;;;;32.06;45.29;101155.56;4992357;28;64985;-40
2021/03/05 04:38:59;;;;;;;;;;;;;;;32.09;44.88;101162.44;4991179;28;69258;-40
2021/03/05 04:41:28;;;;;;;;;;;;;;;32.12;45.00;101148.44;4992429;28;66319;-40
2021/03/05 04:43:58;;;;;;;;;;;;;;;32.13;45.09;101144.69;4992454;28;70071;-42
2021/03/05 04:46:28;;;;;;;;;;;;;;;32.16;45.25;101149.66;4989976;28;65127;-39
2021/03/05 04:48:57;;;;;;;;;;;;;;;32.16;45.00;101139.63;4988916;28;69936;-39
2021/03/05 04:51:26;;;;;;;;;;;;;;;32.20;45.34;101137.28;4989785;28;66153;-39
2021/03/05 04:53:55;;;;;;;;;;;;;;;32.05;45.01;101116.75;4987571;28;69305;-38
2021/03/05 04:56:24;;;;;;;;;;;;;;;32.23;45.00;101118.69;4995412;28;65822;-38
2021/03/05 04:58:53;;;;;;;;;;;;;;;32.18;44.60;101110.41;4991274;28;68973;-40
2021/03/05 05:01:22;;;;;;;;;;;;;;;32.21;45.21;101103.69;4993220;28;66110;-38
2021/03/05 05:03:51;;;;;;;;;;;;;;;32.22;44.80;101105.34;4991456;28;71079;-38
2021/03/05 05:06:20;;;;;;;;;;;;;;;32.25;44.91;101099.47;4996025;28;66467;-39
2021/03/05 05:08:49;;;;;;;;;;;;;;;32.26;44.84;101091.09;4993605;28;70024;-37
2021/03/05 05:11:19;;;;;;;;;;;;;;;32.30;44.62;101086.03;4989924;28;67353;-41
2021/03/05 05:13:48;;;;;;;;;;;;;;;32.33;44.31;101091.03;4988237;28;69031;-39
2021/03/05 05:16:18;;;;;;;;;;;;;;;32.37;44.40;101086.78;4992262;28;67059;-38
2021/03/05 05:18:47;;;;;;;;;;;;;;;32.34;43.94;101080.97;4986784;28;70965;-37
2021/03/05 05:21:16;;;;;;;;;;;;;;;32.37;44.34;101069.66;4987161;28;65543;-38
2021/03/05 05:23:45;;;;;;;;;;;;;;;32.28;44.14;101059.09;4989732;28;69899;-39
2021/03/05 05:26:14;;;;;;;;;;;;;;;32.37;43.82;101070.50;4993695;28;66621;-39
2021/03/05 05:28:43;;;;;;;;;;;;;;;32.38;44.08;101066.75;5001107;28;70271;-39
2021/03/05 05:31:12;;;;;;;;;;;;;;;32.39;43.98;101060.25;4991207;28;65830;-38
2021/03/05 05:33:42;;;;;;;;;;;;;;;32.39;44.11;101052.09;4989996;28;69731;-44
2021/03/05 05:36:10;;;;;;;;;;;;;;;32.41;43.66;101046.47;4992670;28;66119;-41
2021/03/05 05:38:40;;;;;;;;;;;;;;;32.39;43.73;101046.66;4994140;28;70105;-38
2021/03/05 05:41:09;;;;;;;;;;;;;;;32.44;43.43;101049.53;4987566;28;66599;-39
2021/03/05 05:43:39;;;;;;;;;;;;;;;32.44;43.83;101041.41;4990806;28;70094;-39
2021/03/05 05:46:09;;;;;;;;;;;;;;;32.46;43.19;101036.59;4990938;28;66872;-39
2021/03/05 05:48:45;;;;;;;;;;;;;;;32.53;43.37;101032.97;4992477;28;70574;-39
2021/03/05 05:51:18;;;;;;;;;;;;;;;32.50;43.34;101028.81;4991384;28;65725;-40
2021/03/05 05:53:47;;;;;;;;;;;;;;;32.52;43.82;101028.63;4993294;28;69875;-39
2021/03/05 05:56:18;;;;;;;;;;;;;;;32.54;43.51;101021.03;4989278;28;67138;-39
2021/03/05 05:58:47;;;;;;;;;;;;;;;32.60;43.76;101014.72;4987811;28;69290;-40
2021/03/05 06:01:16;;;;;;;;;;;;;;;32.61;43.56;101005.50;4989477;28;65482;-41
2021/03/05 06:03:45;;;;;;;;;;;;;;;32.66;43.48;101009.19;4986037;28;69938;-39
2021/03/05 06:06:14;;;;;;;;;;;;;;;32.70;43.48;101009.56;4987642;28;66087;-39
2021/03/05 06:08:58;;;;;;;;;;;;;;;32.65;43.67;100995.81;4991838;28;70150;-39
2021/03/05 06:11:32;;;;;;;;;;;;;;;32.75;43.29;101012.41;4990743;28;66204;-38
2021/03/05 06:14:02;;;;;;;;;;;;;;;32.73;43.06;101003.66;4991015;28;70103;-38
2021/03/05 06:16:31;;;;;;;;;;;;;;;32.78;43.42;101006.50;4981984;28;67123;-39
2021/03/05 06:19:01;;;;;;;;;;;;;;;32.82;43.44;100991.44;4992403;28;69491;-38
2021/03/05 06:21:40;;;;;;;;;;;;;;;32.86;43.31;100989.88;4992762;28;66441;-39
2021/03/05 06:24:09;;;;;;;;;;;;;;;32.91;43.33;100984.59;4982096;28;69125;-37
2021/03/05 06:26:55;;;;;;;;;;;;;;;32.92;43.31;100980.81;4991504;28;65604;-39
2021/03/05 06:29:27;;;;;;;;;;;;;;;33.02;43.16;100990.34;4995123;28;69772;-37
2021/03/05 06:31:55;;;;;;;;;;;;;;;33.07;43.03;100983.13;4992955;28;66343;-38
2021/03/05 06:34:25;;;;;;;;;;;;;;;33.09;43.18;100980.19;4993235;28;70105;-39
2021/03/05 06:36:58;;;;;;;;;;;;;;;33.12;43.02;100975.09;4995433;28;66159;-40
2021/03/05 06:39:29;;;;;;;;;;;;;;;33.15;42.89;100974.66;4991579;28;70117;-40
2021/03/05 06:42:07;;;;;;;;;;;;;;;33.22;42.77;100974.53;4992060;28;66128;-38
2021/03/05 06:44:38;;;;;;;;;;;;;;;33.26;42.87;100964.00;4990629;28;70022;-39
2021/03/05 06:47:11;;;;;;;;;;;;;;;33.28;42.82;100962.72;4994910;28;66152;-38
2021/03/05 06:49:41;;;;;;;;;;;;;;;33.34;42.77;100967.22;4991807;28;69315;-41
2021/03/05 06:52:11;;;;;;;;;;;;;;;33.40;42.63;100970.06;4989435;28;66346;-38
2021/03/05 06:54:41;;;;;;;;;;;;;;;33.45;42.44;100956.59;5006226;28;70087;-39
2021/03/05 06:57:12;;;;;;;;;;;;;;;33.50;42.24;100959.44;4980247;28;65982;-39
2021/03/05 06:59:42;;;;;;;;;;;;;;;33.54;42.01;100960.63;4990516;28;70377;-39
2021/03/05 07:02:11;;;;;;;;;;;;;;;33.54;42.30;100950.59;4985534;28;65715;-39
2021/03/05 07:04:50;;;;;;;;;;;;;;;33.60;42.11;100959.69;4983619;28;69882;-38
2021/03/05 07:07:20;;;;;;;;;;;;;;;33.64;42.07;100952.72;4992935;28;65144;-39
2021/03/05 07:09:50;;;;;;;;;;;;;;;33.69;41.90;100941.94;4984966;28;71498;-39
2021/03/05 07:12:22;;;;;;;;;;;;;;;33.73;41.85;100937.66;4992071;28;66238;-38
2021/03/05 07:15:04;;;;;;;;;;;;;;;33.77;42.09;100933.41;4997780;28;70077;-43
2021/03/05 07:17:34;;;;;;;;;;;;;;;33.81;41.76;100934.59;4987926;28;66724;-38
2021/03/05 07:20:15;;;;;;;;;;;;;;;33.83;41.89;100933.53;4998302;28;69779;-38
2021/03/05 07:22:47;;;;;;;;;;;;;;;33.89;41.84;100929.84;4997195;28;65569;-39
2021/03/05 07:25:17;;;;;;;;;;;;;;;33.95;41.67;100923.44;4998066;28;70108;-38
2021/03/05 07:27:50;;;;;;;;;;;;;;;33.98;41.83;100917.50;4995497;28;66134;-39
2021/03/05 07:30:20;;;;;;;;;;;;;;;34.02;41.73;100921.41;4996288;28;70513;-38
2021/03/05 07:32:50;;;;;;;;;;;;;;;34.07;41.45;100920.72;4996679;28;65394;-36
2021/03/05 07:35:19;;;;;;;;;;;;;;;34.13;41.57;100915.16;4997868;28;70004;-39
2021/03/05 07:37:55;;;;;;;;;;;;;;;34.19;41.43;100914.19;4991733;28;66595;-38
2021/03/05 07:40:24;;;;;;;;;;;;;;;34.22;41.32;100908.25;4996434;28;70170;-39
2021/03/05 07:42:55;;;;;;;;;;;;;;;34.27;41.25;100904.81;4995298;28;66801;-39
2021/03/05 07:45:24;;;;;;;;;;;;;;;34.31;41.33;100914.13;4994817;28;69175;-38
2021/03/05 07:47:56;;;;;;;;;;;;;;;34.37;41.23;100915.88;4996613;28;67039;-40
2021/03/05 07:50:26;;;;;;;;;;;;;;;34.38;41.12;100919.41;4997327;28;70161;-39
2021/03/05 07:52:59;;;;;;;;;;;;;;;34.46;41.22;100924.47;4995741;28;65583;-39
2021/03/05 07:55:36;;;;;;;;;;;;;;;34.51;40.80;100921.84;4990205;28;70108;-39
2021/03/05 07:58:05;;;;;;;;;;;;;;;34.57;40.84;100915.44;4995439;28;65983;-38
2021/03/05 08:00:49;;;;;;;;;;;;;;;34.58;40.57;100917.13;4985985;28;69860;-38
2021/03/05 08:03:25;;;;;;;;;;;;;;;34.65;40.79;100920.50;4994455;28;65992;-40
2021/03/05 08:05:57;;;;;;;;;;;;;;;34.71;40.52;100913.22;4996863;28;70411;-39
2021/03/05 08:08:27;;;;;;;;;;;;;;;34.70;40.77;100912.41;4994320;28;66535;-39
2021/03/05 08:11:00;;;;;;;;;;;;;;;34.80;40.62;100913.66;4992490;28;69678;-39
2021/03/05 08:16:31;;;;;;;;;;;;;;;34.90;40.51;100917.38;4992758;28;70413;-38
2021/03/05 08:19:03;;;;;;;;;;;;;;;34.95;40.42;100911.19;4998719;28;66238;-38
2021/03/05 08:22:12;;;;;;;;;;;;;;;34.99;40.04;100917.78;4994275;28;69552;-39
2021/03/05 08:24:41;;;;;;;;;;;;;;;35.05;40.22;100911.38;5015396;28;65462;-39
2021/03/05 08:27:20;;;;;;;;;;;;;;;35.12;40.32;100916.69;4994490;28;71210;-38
2021/03/05 08:30:00;;;;;;;;;;;;;;;35.19;40.01;100911.03;4996636;28;65397;-39
2021/03/05 08:32:32;;;;;;;;;;;;;;;35.21;39.50;100914.34;4997103;28;69623;-38
2021/03/05 08:35:09;;;;;;;;;;;;;;;35.25;39.84;100918.25;5000612;28;66681;-39
2021/03/05 08:37:40;;;;;;;;;;;;;;;35.35;39.64;100921.97;4998045;28;69748;-38
2021/03/05 08:40:18;;;;;;;;;;;;;;;35.37;39.26;100918.97;5000591;28;66772;-39
2021/03/05 08:42:48;;;;;;;;;;;;;;;35.46;39.39;100925.63;4999727;28;69710;-39
2021/03/05 08:45:18;;;;;;;;;;;;;;;35.48;39.25;100918.03;4992574;28;65968;-39
2021/03/05 08:47:49;;;;;;;;;;;;;;;35.53;39.31;100926.28;4998662;28;70656;-38
2021/03/05 08:50:21;;;;;;;;;;;;;;;35.62;39.42;100931.34;4997875;28;66735;-39
2021/03/05 08:52:50;;;;;;;;;;;;;;;35.68;38.86;100924.88;4998891;28;70655;-39
2021/03/05 08:55:21;;;;;;;;;;;;;;;35.70;38.80;100928.19;4997541;28;67882;-39
2021/03/05 08:57:54;;;;;;;;;;;;;;;35.79;39.09;100935.69;4998036;28;70677;-39
2021/03/05 09:00:28;;;;;;;;;;;;;;;35.82;39.23;100937.06;4997427;28;66545;-39
2021/03/05 09:03:13;;;;;;;;;;;;;;;35.87;38.37;100944.53;4998945;28;69442;-38
2021/03/05 09:05:43;;;;;;;;;;;;;;;35.92;38.71;100942.69;5002102;28;64271;-38
2021/03/05 09:08:13;;;;;;;;;;;;;;;35.99;38.19;100939.75;4999645;28;70186;-38
2021/03/05 09:10:49;;;;;;;;;;;;;;;35.96;38.78;100949.28;4998493;28;65411;-38
2021/03/05 09:13:21;;;;;;;;;;;;;;;36.04;38.24;100948.00;4997565;28;70437;-39
2021/03/05 09:15:55;;;;;;;;;;;;;;;36.09;38.03;100944.56;4987584;28;66913;-40
2021/03/05 09:18:26;;;;;;;;;;;;;;;36.16;37.84;100947.91;4997542;28;69558;-39
2021/03/05 09:20:56;;;;;;;;;;;;;;;36.19;38.07;100952.84;4998423;28;64964;-39
2021/03/05 09:23:40;;;;;;;;;;;;;;;36.22;38.20;100953.19;4999346;28;69936;-39
2021/03/05 09:26:16;;;;;;;;;;;;;;;36.27;37.62;100966.06;4997289;28;66667;-39
2021/03/05 09:28:48;;;;;;;;;;;;;;;36.32;38.00;100955.19;4998781;28;70023;-40
2021/03/05 09:31:22;;;;;;;;;;;;;;;36.33;37.88;100959.59;4997629;28;66874;-39
2021/03/05 09:33:52;;;;;;;;;;;;;;;36.39;37.75;100963.22;4999643;28;69778;-39
2021/03/05 09:40:08;;;;;;;;;;;;;;;36.44;37.29;100968.69;4997819;28;69967;-38
2021/03/05 09:42:55;;;;;;;;;;;;;;;36.40;37.90;100960.19;4996686;28;67000;-39
2021/03/05 09:45:43;;;;;;;;;;;;;;;36.41;37.38;100967.34;4996583;28;69832;-39
2021/03/05 09:48:33;;;;;;;;;;;;;;;36.45;37.10;100973.91;4997458;28;64440;-39
2021/03/05 09:51:09;;;;;;;;;;;;;;;36.44;37.32;100972.28;4998206;28;70599;-40
2021/03/05 09:53:39;;;;;;;;;;;;;;;36.49;37.44;100976.13;4996884;28;66540;-39
2021/03/05 09:56:09;;;;;;;;;;;;;;;36.54;37.44;100970.75;4998810;28;69369;-39
2021/03/05 09:58:50;;;;;;;;;;;;;;;36.50;37.32;100975.03;4997427;28;66591;-39
2021/03/05 10:01:19;;;;;;;;;;;;;;;36.46;37.58;100963.81;4985516;28;68994;-41
2021/03/05 10:03:58;;;;;;;;;;;;;;;36.49;37.82;100984.34;4994231;28;66524;-39
2021/03/05 10:06:28;;;;;;;;;;;;;;;36.51;37.97;100979.44;4997302;28;68729;-39
2021/03/05 10:09:00;;;;;;;;;;;;;;;36.51;37.84;100972.06;4997815;28;67430;-39
2021/03/05 10:11:42;;;;;;;;;;;;;;;36.46;37.94;100986.50;4999747;28;43752;-39
2021/03/05 10:14:21;;;;;;;;;;;;;;;36.43;37.68;100987.00;4999722;28;66341;-38
2021/03/05 10:16:50;;;;;;;;;;;;;;;36.25;38.37;100984.63;4993751;28;69812;-29
2021/03/05 10:19:22;;;;;;;;;;;;;;;35.94;38.70;100988.81;4996456;28;65092;-27
2021/03/05 10:21:54;;;;;;;;;;;;;;;35.53;39.12;100980.84;4997912;28;69868;-38
2021/03/05 10:24:27;;;;;;;;;;;;;;;35.26;39.40;100982.59;4997344;28;66011;-28
2021/03/05 10:29:52;;;;;;;;;;;;;;;34.85;40.36;100981.88;4996815;28;66264;-31
2021/03/05 10:32:25;;;;;;;;;;;;;;;34.80;40.26;100987.22;5027810;28;69955;-29
2021/03/05 10:34:58;;;;;;;;;;;;;;;34.68;40.37;100988.13;4999406;28;66169;-27
2021/03/05 10:37:28;;;;;;;;;;;;;;;34.55;41.00;100985.69;4997196;28;69101;-29
2021/03/05 10:39:57;;;;;;;;;;;;;;;34.44;41.38;100981.09;4998355;28;66039;-26
2021/03/05 10:42:27;;;;;;;;;;;;;;;34.42;41.30;100988.69;4994130;28;68908;-28
2021/03/05 10:44:57;;;;;;;;;;;;;;;34.40;42.37;101001.69;4997020;28;63858;-29
2021/03/05 10:47:26;;;;;;;;;;;;;;;34.48;41.52;101004.88;4997183;28;69180;-29
2021/03/05 10:49:55;;;;;;;;;;;;;;;34.59;41.27;101000.47;4997792;28;66405;-29
2021/03/05 10:52:26;;;;;;;;;;;;;;;34.55;41.39;101004.75;4993677;28;70494;-28
2021/03/05 10:54:56;;;;;;;;;;;;;;;34.61;40.54;101003.78;4997009;28;65557;-29
2021/03/05 10:57:25;;;;;;;;;;;;;;;34.54;40.48;101007.69;4996814;28;68704;-29
2021/03/05 10:59:55;;;;;;;;;;;;;;;34.55;40.27;101010.19;4998486;28;65168;-28
2021/03/05 11:02:24;;;;;;;;;;;;;;;34.54;40.41;101008.50;4996852;28;69756;-28
2021/03/05 11:04:54;;;;;;;;;;;;;;;34.43;40.76;101023.00;4998867;28;69132;-29
2021/03/05 11:07:25;;;;;;;;;;;;;;;34.67;40.50;101016.44;4996785;28;70006;-28
2021/03/05 11:09:54;;;;;;;;;;;;;;;34.74;40.34;101019.00;4999801;28;66722;-28
2021/03/05 11:12:23;;;;;;;;;;;;;;;34.87;40.19;101024.16;4997891;28;70723;-28
2021/03/05 11:14:53;;;;;;;;;;;;;;;34.92;39.99;101027.00;4996796;28;65971;-28
2021/03/05 11:17:22;;;;;;;;;;;;;;;34.94;39.88;101029.50;4998141;28;70203;-27
2021/03/05 11:19:51;;;;;;;;;;;;;;;34.85;39.85;101036.38;4998349;28;66078;-27
2021/03/05 11:22:19;;;;;;;;;;;;;;;34.64;40.43;101041.44;4993740;28;69996;-34
2021/03/05 11:24:49;;;;;;;;;;;;;;;34.44;41.00;101043.75;5000377;28;65298;-27
2021/03/05 11:27:19;;;;;;;;;;;;;;;34.39;41.03;101043.63;4999211;28;69725;-27
2021/03/05 11:29:48;;;;;;;;;;;;;;;34.41;41.15;101036.88;4998201;28;66928;-30
2021/03/05 11:32:17;;;;;;;;;;;;;;;34.43;40.97;101051.06;4998851;28;70717;-28
2021/03/05 11:34:47;;;;;;;;;;;;;;;34.30;41.56;101055.94;4997234;28;67909;-27
2021/03/05 11:37:16;;;;;;;;;;;;;;;34.31;41.69;101060.34;4990117;28;68784;-28
2021/03/05 11:39:45;;;;;;;;;;;;;;;34.37;42.18;101056.66;4997358;28;66784;-29
2021/03/05 11:42:14;;;;;;;;;;;;;;;34.29;42.35;101054.28;4997906;28;68890;-29
2021/03/05 11:44:42;;;;;;;;;;;;;;;34.17;42.13;101060.59;4998318;28;66371;-28
2021/03/05 11:47:11;;;;;;;;;;;;;;;34.09;42.13;101066.41;4991228;28;70215;-27
2021/03/05 11:49:43;;;;;;;;;;;;;;;34.07;41.71;101068.53;4992286;28;66065;-28
2021/03/05 11:52:12;;;;;;;;;;;;;;;33.91;42.19;101080.13;4997463;28;69365;-29
2021/03/05 11:54:42;;;;;;;;;;;;;;;33.80;42.54;101085.31;4996779;28;66232;-30
2021/03/05 11:57:11;;;;;;;;;;;;;;;33.81;42.50;101076.06;4993058;28;69998;-32
2021/03/05 11:59:40;;;;;;;;;;;;;;;33.75;43.30;101077.03;4994458;28;65536;-29
2021/03/05 12:02:08;;;;;;;;;;;;;;;33.69;42.30;101088.84;4995647;28;70692;-35
2021/03/05 12:04:37;;;;;;;;;;;;;;;33.46;41.89;101083.31;4997513;28;66117;-27
2021/03/05 12:07:06;;;;;;;;;;;;;;;33.31;41.22;101081.03;4997483;28;70000;-28
2021/03/05 12:09:35;;;;;;;;;;;;;;;33.29;40.54;101088.59;5000099;28;65571;-28
2021/03/05 12:12:04;;;;;;;;;;;;;;;33.14;40.00;101091.75;5001011;28;69727;-28
2021/03/05 12:14:41;;;;;;;;;;;;;;;33.07;40.02;101099.16;4998737;28;65345;-29
2021/03/05 12:17:10;;;;;;;;;;;;;;;33.04;39.61;101097.75;4997492;28;69910;-28
2021/03/05 12:19:39;;;;;;;;;;;;;;;32.94;38.85;101098.25;5000364;28;65743;-29
2021/03/05 12:22:07;;;;;;;;;;;;;;;32.80;37.98;101107.63;5000534;28;69064;-28
2021/03/05 12:24:37;;;;;;;;;;;;;;;32.74;38.13;101097.69;4998641;28;67016;-31
2021/03/05 12:27:06;;;;;;;;;;;;;;;32.68;39.06;101104.00;4984880;28;69776;-30
2021/03/05 12:29:35;;;;;;;;;;;;;;;32.65;39.55;101109.91;4999622;28;66914;-28
2021/03/05 12:32:04;;;;;;;;;;;;;;;32.57;39.08;101112.91;5000043;28;70546;-34
2021/03/05 12:34:33;;;;;;;;;;;;;;;32.53;38.79;101112.56;4997451;28;65490;-28
2021/03/05 12:37:02;;;;;;;;;;;;;;;32.51;38.61;101113.81;4996852;28;69930;-30
2021/03/05 12:39:43;;;;;;;;;;;;;;;32.48;38.59;101121.41;4996882;28;66218;-28
2021/03/05 12:42:12;;;;;;;;;;;;;;;32.42;40.24;101116.81;4998409;28;69258;-30
2021/03/05 12:44:44;;;;;;;;;;;;;;;32.43;39.94;101123.91;4994863;28;66360;-31
2021/03/05 12:47:13;;;;;;;;;;;;;;;32.41;39.73;101123.31;4999444;28;70063;-31
2021/03/05 12:49:42;;;;;;;;;;;;;;;32.37;39.90;101129.41;4998580;28;65607;-30
2021/03/05 12:52:12;;;;;;;;;;;;;;;32.25;38.97;101132.03;4996260;28;70076;-29
2021/03/05 12:54:40;;;;;;;;;;;;;;;32.16;39.21;101134.19;4996868;28;65363;-30
2021/03/05 12:57:10;;;;;;;;;;;;;;;32.18;38.26;101128.53;4992149;28;68965;-29
2021/03/05 12:59:39;;;;;;;;;;;;;;;32.11;38.24;101134.03;4992571;28;66219;-30
2021/03/05 13:02:09;;;;;;;;;;;;;;;32.05;38.24;101146.63;4994342;28;70999;-31
2021/03/05 13:04:39;;;;;;;;;;;;;;;31.98;38.67;101143.13;4993328;28;66195;-31
2021/03/05 13:07:08;;;;;;;;;;;;;;;31.93;38.45;101139.41;4997320;28;70156;-28